Time;durP1;ratioP1;P1;durP2;ratioP2;P2;SDS_P1;SDS_P2;PMS_P1;PMS_P2;Temp;Humidity;BMP_temperature;BMP_pressure;BME280_temperature;BME280_humidity;BME280_pressure;Samples;Min_cycle;Max_cycle;Signal;HPM_P1;HPM_P2
2022/10/03 00:01:22;;;;;;;0.65;0.60;;;19.00;99.90;;;;;;5029902;28;20210;-77
2022/10/03 00:04:03;;;;;;;0.77;0.68;;;19.00;99.90;;;;;;5028084;28;20194;-79
2022/10/03 00:06:43;;;;;;;1.13;0.65;;;18.90;99.90;;;;;;5032348;28;20202;-75
2022/10/03 00:09:26;;;;;;;1.40;0.60;;;18.80;99.90;;;;;;5033416;28;20190;-76
2022/10/03 00:12:10;;;;;;;1.50;0.70;;;18.70;99.90;;;;;;5029641;28;20561;-75
2022/10/03 00:14:53;;;;;;;2.47;0.80;;;18.70;99.90;;;;;;5029754;28;20198;-78
2022/10/03 00:17:31;;;;;;;1.77;0.70;;;18.50;99.90;;;;;;5024852;28;20280;-74
2022/10/03 00:20:09;;;;;;;1.65;0.70;;;18.30;99.90;;;;;;5030935;28;20209;-74
2022/10/03 00:22:48;;;;;;;0.93;0.65;;;18.00;99.90;;;;;;5028970;28;20844;-75
2022/10/03 00:25:33;;;;;;;2.00;0.95;;;17.90;99.90;;;;;;5022618;28;20217;-73
2022/10/03 00:28:22;;;;;;;1.25;0.90;;;17.90;99.90;;;;;;5027357;28;20208;-76
2022/10/03 00:31:13;;;;;;;0.75;0.65;;;17.90;99.90;;;;;;5026078;28;20218;-73
2022/10/03 00:33:57;;;;;;;1.27;0.80;;;17.90;99.90;;;;;;5031943;28;20673;-79
2022/10/03 00:36:38;;;;;;;1.02;0.70;;;17.90;99.90;;;;;;5030632;28;20679;-77
2022/10/03 00:39:34;;;;;;;1.00;0.70;;;17.90;99.90;;;;;;5031184;28;20197;-77
2022/10/03 00:42:36;;;;;;;2.50;0.80;;;17.90;99.90;;;;;;5023843;28;20197;-70
2022/10/03 00:45:54;;;;;;;0.43;0.43;;;17.80;99.90;;;;;;5028425;28;20194;-79
2022/10/03 00:48:49;;;;;;;1.27;0.80;;;17.80;99.90;;;;;;5001875;28;20247;-75
2022/10/03 00:51:33;;;;;;;0.98;0.60;;;17.70;99.90;;;;;;5007303;28;20653;-76
2022/10/03 00:54:20;;;;;;;1.50;0.85;;;17.70;99.90;;;;;;5016492;28;20202;-76
2022/10/03 00:57:08;;;;;;;0.50;0.50;;;17.70;99.90;;;;;;5025010;28;20214;-70
2022/10/03 01:00:03;;;;;;;1.70;0.60;;;17.80;99.90;;;;;;5027889;28;20195;-78
2022/10/03 01:03:04;;;;;;;1.98;0.60;;;18.30;99.90;;;;;;5026853;28;20198;-78
2022/10/03 01:05:46;;;;;;;1.15;0.40;;;19.00;99.90;;;;;;5021041;28;20195;-79
2022/10/03 01:08:38;;;;;;;1.80;0.63;;;19.40;99.90;;;;;;5031781;28;20209;-75
2022/10/03 01:11:23;;;;;;;0.70;0.50;;;19.70;99.90;;;;;;5021793;28;20614;-71
2022/10/03 01:14:05;;;;;;;1.30;0.60;;;20.00;99.90;;;;;;5022035;28;20247;-76
2022/10/03 01:16:46;;;;;;;2.58;0.70;;;20.10;99.90;;;;;;5028517;28;20204;-74
2022/10/03 01:19:42;;;;;;;0.95;0.70;;;20.10;99.90;;;;;;5030594;28;20202;-82
2022/10/03 01:22:36;;;;;;;1.15;0.80;;;20.20;99.90;;;;;;5026586;28;20607;-83
2022/10/03 01:25:16;;;;;;;1.90;0.60;;;20.60;99.90;;;;;;5021729;28;20194;-79
2022/10/03 01:30:47;;;;;;;1.17;0.70;;;20.60;99.90;;;;;;5025134;28;20240;-82
2022/10/03 01:33:24;;;;;;;1.17;0.73;;;20.10;99.90;;;;;;5027475;28;20202;-80
2022/10/03 01:36:01;;;;;;;2.25;1.00;;;19.60;99.90;;;;;;5030067;28;20193;-78
2022/10/03 01:38:38;;;;;;;1.90;0.70;;;19.30;99.90;;;;;;5032862;28;20332;-80
2022/10/03 01:41:16;;;;;;;1.48;0.85;;;18.90;99.90;;;;;;5027415;28;20194;-82
2022/10/03 01:43:53;;;;;;;1.42;0.80;;;18.80;99.90;;;;;;5023316;28;20220;-76
2022/10/03 01:46:35;;;;;;;1.10;1.00;;;19.10;99.90;;;;;;5025324;28;20205;-83
2022/10/03 01:49:19;;;;;;;1.23;0.80;;;19.30;99.90;;;;;;5027042;28;20285;-83
2022/10/03 01:52:00;;;;;;;3.45;0.70;;;19.80;99.90;;;;;;5025451;28;20198;-79
2022/10/03 01:54:41;;;;;;;2.38;0.70;;;20.00;99.90;;;;;;5021017;28;20210;-80
2022/10/03 01:57:20;;;;;;;2.50;1.20;;;20.10;99.90;;;;;;5024678;28;20214;-83
2022/10/03 02:00:00;;;;;;;2.88;0.77;;;20.00;99.90;;;;;;5030505;28;20198;-79
2022/10/03 02:02:41;;;;;;;1.92;0.77;;;19.80;99.90;;;;;;5029317;28;20193;-80
2022/10/03 02:05:17;;;;;;;3.45;0.77;;;19.90;99.90;;;;;;5028831;28;20197;-81
2022/10/03 02:07:54;;;;;;;2.22;0.82;;;19.80;99.90;;;;;;5029786;28;20209;-79
2022/10/03 02:10:34;;;;;;;2.67;0.70;;;19.90;99.90;;;;;;5026406;28;20679;-79
2022/10/03 02:13:14;;;;;;;1.35;0.63;;;20.00;99.90;;;;;;5025862;28;20208;-81
2022/10/03 02:15:57;;;;;;;5.97;0.80;;;20.10;99.90;;;;;;5031138;28;20260;-78
2022/10/03 02:18:43;;;;;;;1.73;0.52;;;20.30;99.90;;;;;;5029188;28;20309;-78
2022/10/03 02:21:19;;;;;;;1.02;0.50;;;20.30;99.90;;;;;;5030199;28;20248;-77
2022/10/03 02:23:52;;;;;;;0.52;0.50;;;20.20;99.90;;;;;;5032349;28;20202;-76
2022/10/03 02:27:03;;;;;;;1.05;0.52;;;20.30;99.90;;;;;;5029985;28;20195;-79
2022/10/03 02:30:14;;;;;;;1.80;0.68;;;20.20;99.90;;;;;;5029352;28;20715;-77
2022/10/03 02:33:16;;;;;;;1.02;0.50;;;20.30;99.90;;;;;;5029020;28;20209;-75
2022/10/03 02:36:10;;;;;;;0.77;0.52;;;20.00;99.90;;;;;;5013909;28;20208;-76
2022/10/03 02:39:00;;;;;;;1.08;0.45;;;19.70;99.90;;;;;;5031894;28;20261;-78
2022/10/03 02:42:06;;;;;;;1.60;0.50;;;19.90;99.90;;;;;;5022253;28;20233;-80
2022/10/03 02:45:09;;;;;;;3.28;0.40;;;20.00;99.90;;;;;;5030389;28;20200;-78
2022/10/03 02:48:07;;;;;;;1.13;0.50;;;20.30;99.90;;;;;;5023167;28;20596;-79
2022/10/03 02:51:10;;;;;;;1.30;0.63;;;20.40;99.90;;;;;;5027954;28;20442;-75
2022/10/03 02:54:35;;;;;;;26.95;15.25;;;20.20;99.90;;;;;;5029174;28;20264;-79
2022/10/03 02:57:34;;;;;;;7.47;5.05;;;20.30;99.90;;;;;;5031896;28;20198;-74
2022/10/03 03:00:16;;;;;;;2.53;0.70;;;20.40;99.90;;;;;;5038316;28;20206;-77
2022/10/03 03:03:18;;;;;;;2.80;1.00;;;20.40;99.90;;;;;;5028478;28;20199;-78
2022/10/03 03:06:32;;;;;;;2.08;0.55;;;20.30;99.90;;;;;;5017570;28;20212;-73
2022/10/03 03:09:37;;;;;;;0.88;0.47;;;20.20;99.90;;;;;;5032907;28;20199;-75
2022/10/03 03:12:51;;;;;;;0.85;0.43;;;20.00;99.90;;;;;;5025967;28;20231;-72
2022/10/03 03:16:02;;;;;;;1.00;0.60;;;19.90;99.90;;;;;;5028776;28;20208;-78
2022/10/03 03:18:38;;;;;;;1.33;0.52;;;20.10;99.90;;;;;;5038975;28;20261;-76
2022/10/03 03:21:28;;;;;;;2.25;0.30;;;20.10;99.90;;;;;;5029431;28;20194;-75
2022/10/03 03:24:33;;;;;;;0.73;0.40;;;20.10;99.90;;;;;;5031897;28;20190;-75
2022/10/03 03:27:28;;;;;;;2.47;0.52;;;20.10;99.90;;;;;;5033684;28;20194;-77
2022/10/03 03:30:04;;;;;;;3.40;0.47;;;20.00;99.90;;;;;;5025693;28;20190;-75
2022/10/03 03:32:46;;;;;;;0.85;0.40;;;20.20;99.90;;;;;;5030149;28;20204;-73
2022/10/03 03:35:30;;;;;;;1.10;0.52;;;20.10;99.90;;;;;;5024231;28;20220;-74
2022/10/03 03:38:16;;;;;;;1.60;0.50;;;19.90;99.90;;;;;;5025146;28;20274;-74
2022/10/03 03:41:07;;;;;;;1.05;0.40;;;19.80;99.90;;;;;;5030735;28;20201;-71
2022/10/03 03:43:54;;;;;;;0.93;0.30;;;19.70;99.90;;;;;;5024936;28;20613;-72
2022/10/03 03:46:37;;;;;;;1.52;0.63;;;19.70;99.90;;;;;;5029922;28;20205;-74
2022/10/03 03:49:26;;;;;;;2.67;0.80;;;19.70;99.90;;;;;;5026886;28;20309;-74
2022/10/03 03:52:14;;;;;;;3.08;0.85;;;19.70;99.90;;;;;;5033054;28;20201;-74
2022/10/03 03:55:32;;;;;;;1.85;0.60;;;19.70;99.90;;;;;;5031828;28;20676;-73
2022/10/03 03:58:31;;;;;;;2.40;0.60;;;19.50;99.90;;;;;;5012699;28;20701;-74
2022/10/03 04:01:19;;;;;;;2.05;0.55;;;19.50;99.90;;;;;;5030358;28;20201;-73
2022/10/03 04:04:02;;;;;;;0.80;0.38;;;19.50;99.90;;;;;;5031397;28;20202;-73
2022/10/03 04:06:45;;;;;;;0.93;0.60;;;19.70;99.90;;;;;;5025124;28;20319;-74
2022/10/03 04:09:32;;;;;;;2.50;0.50;;;19.60;99.90;;;;;;5028789;28;20198;-76
2022/10/03 04:12:09;;;;;;;1.38;0.60;;;19.60;99.90;;;;;;5032615;28;20194;-74
2022/10/03 04:15:05;;;;;;;2.33;0.50;;;19.50;99.90;;;;;;5026827;28;20201;-75
2022/10/03 04:21:03;;;;;;;1.02;0.50;;;19.60;99.90;;;;;;5032534;28;20197;-76
2022/10/03 04:23:48;;;;;;;2.38;0.40;;;19.50;99.90;;;;;;5031031;28;20232;-76
2022/10/03 04:26:43;;;;;;;1.35;0.40;;;19.50;99.90;;;;;;5031462;28;20677;-74
2022/10/03 04:29:39;;;;;;;1.55;0.50;;;19.50;99.90;;;;;;5031006;28;20198;-75
2022/10/03 04:32:23;;;;;;;2.55;0.60;;;19.50;99.90;;;;;;5027247;28;20547;-77
2022/10/03 04:35:10;;;;;;;2.20;0.60;;;19.40;99.90;;;;;;5026181;28;20556;-75
2022/10/03 04:37:48;;;;;;;1.17;0.60;;;19.30;99.90;;;;;;5029124;28;20244;-75
2022/10/03 04:40:35;;;;;;;3.92;0.65;;;19.20;99.90;;;;;;5031071;28;20212;-75
2022/10/03 04:43:11;;;;;;;1.65;0.60;;;19.20;99.90;;;;;;5032669;28;20202;-75
2022/10/03 04:46:09;;;;;;;0.80;0.45;;;19.30;99.90;;;;;;5023643;28;20194;-74
2022/10/03 04:48:49;;;;;;;3.20;0.60;;;19.40;99.90;;;;;;5018650;28;20684;-75
2022/10/03 04:51:25;;;;;;;1.70;0.43;;;19.30;99.90;;;;;;5029805;28;20198;-75
2022/10/03 04:54:01;;;;;;;1.88;0.50;;;19.40;99.90;;;;;;5025541;28;20207;-76
2022/10/03 04:56:44;;;;;;;1.25;0.40;;;19.40;99.90;;;;;;5030065;28;20193;-71
2022/10/03 04:59:40;;;;;;;0.93;0.45;;;19.30;99.90;;;;;;5025143;28;20230;-73
2022/10/03 05:02:27;;;;;;;1.48;0.40;;;19.40;99.90;;;;;;5026066;28;20194;-72
2022/10/03 05:05:18;;;;;;;0.75;0.30;;;19.40;99.90;;;;;;5029900;28;20724;-74
2022/10/03 05:07:56;;;;;;;0.80;0.40;;;19.40;99.90;;;;;;5027943;28;20654;-73
2022/10/03 05:10:42;;;;;;;1.40;0.60;;;19.30;99.90;;;;;;5027383;28;20202;-75
2022/10/03 05:13:19;;;;;;;3.67;0.50;;;19.10;99.90;;;;;;5027183;28;20198;-71
2022/10/03 05:16:01;;;;;;;3.22;0.70;;;19.10;99.90;;;;;;5022432;28;20198;-71
2022/10/03 05:18:42;;;;;;;0.63;0.43;;;19.10;99.90;;;;;;5025975;28;20210;-73
2022/10/03 05:21:17;;;;;;;1.55;0.68;;;19.10;99.90;;;;;;5028285;28;20194;-72
2022/10/03 05:24:02;;;;;;;0.45;0.43;;;19.10;99.90;;;;;;5029932;28;20206;-71
2022/10/03 05:26:45;;;;;;;1.67;0.50;;;19.20;99.90;;;;;;5025268;28;20194;-70
2022/10/03 05:29:26;;;;;;;2.25;0.40;;;19.10;99.90;;;;;;5019194;28;20256;-74
2022/10/03 05:32:17;;;;;;;0.57;0.40;;;18.90;99.90;;;;;;5015770;28;20226;-72
2022/10/03 05:35:15;;;;;;;0.93;0.40;;;18.70;99.90;;;;;;5023282;28;20201;-73
2022/10/03 05:38:22;;;;;;;1.40;0.43;;;18.80;99.90;;;;;;5029645;28;20233;-74
2022/10/03 05:41:04;;;;;;;1.25;0.47;;;18.80;99.90;;;;;;5027192;28;20205;-74
2022/10/03 05:43:59;;;;;;;0.63;0.30;;;18.90;99.90;;;;;;5028846;28;20193;-72
2022/10/03 05:47:03;;;;;;;1.35;0.40;;;18.80;99.90;;;;;;5025433;28;20199;-75
2022/10/03 05:49:54;;;;;;;1.15;0.40;;;18.70;99.90;;;;;;5024502;28;20209;-73
2022/10/03 05:52:43;;;;;;;1.75;0.40;;;18.60;99.90;;;;;;5032008;28;20546;-73
2022/10/03 05:55:38;;;;;;;1.98;0.55;;;18.50;99.90;;;;;;5031624;28;20220;-74
2022/10/03 05:58:35;;;;;;;1.08;0.52;;;18.30;99.90;;;;;;5032265;28;20233;-74
2022/10/03 06:01:46;;;;;;;2.28;0.90;;;18.20;99.90;;;;;;5032082;28;20733;-75
2022/10/03 06:04:58;;;;;;;1.88;0.75;;;18.10;99.90;;;;;;4999151;28;20244;-73
2022/10/03 06:07:32;;;;;;;0.40;0.40;;;18.00;99.90;;;;;;4991388;28;20562;-72
2022/10/03 06:10:36;;;;;;;1.40;0.70;;;17.90;99.90;;;;;;4992196;28;20205;-73
2022/10/03 06:13:21;;;;;;;1.73;0.75;;;17.90;99.90;;;;;;5008753;28;20202;-71
2022/10/03 06:16:07;;;;;;;2.55;0.70;;;17.90;99.90;;;;;;5033545;28;20647;-74
2022/10/03 06:19:02;;;;;;;0.93;0.50;;;17.90;99.90;;;;;;5029755;28;20218;-73
2022/10/03 06:22:02;;;;;;;1.10;0.50;;;17.90;99.90;;;;;;5030800;28;20228;-74
2022/10/03 06:25:02;;;;;;;3.55;0.50;;;17.90;99.90;;;;;;5030557;28;20205;-73
2022/10/03 06:28:06;;;;;;;0.50;0.30;;;17.90;99.90;;;;;;5026964;28;20202;-74
2022/10/03 06:31:00;;;;;;;0.70;0.55;;;18.00;99.90;;;;;;4997769;28;20233;-71
2022/10/03 06:34:07;;;;;;;1.17;0.52;;;18.10;99.90;;;;;;5025936;28;20211;-73
2022/10/03 06:36:56;;;;;;;3.05;0.30;;;18.30;99.90;;;;;;5015637;28;20245;-74
2022/10/03 06:40:04;;;;;;;1.98;0.50;;;18.30;99.90;;;;;;5031507;28;20218;-76
2022/10/03 06:42:57;;;;;;;2.78;0.45;;;18.30;99.90;;;;;;5024482;28;20608;-74
2022/10/03 06:45:59;;;;;;;0.75;0.60;;;18.20;99.90;;;;;;5030910;28;20194;-75
2022/10/03 06:49:06;;;;;;;1.63;0.47;;;18.20;99.90;;;;;;5023665;28;20280;-72
2022/10/03 06:52:01;;;;;;;0.90;0.40;;;18.10;99.90;;;;;;5026609;28;20567;-78
2022/10/03 06:55:07;;;;;;;0.85;0.38;;;18.00;99.90;;;;;;5031496;28;20194;-74
2022/10/03 06:58:14;;;;;;;0.35;0.35;;;17.80;99.90;;;;;;5031259;28;20216;-76
2022/10/03 07:00:59;;;;;;;0.80;0.60;;;17.80;99.90;;;;;;5027507;28;20202;-73
2022/10/03 07:04:05;;;;;;;1.13;0.40;;;17.60;99.90;;;;;;5024686;28;21886;-72
2022/10/03 07:07:11;;;;;;;1.00;0.40;;;17.50;99.90;;;;;;5027239;28;20298;-73
2022/10/03 07:10:05;;;;;;;1.52;0.60;;;17.40;99.90;;;;;;5025810;28;20210;-73
2022/10/03 07:12:57;;;;;;;0.93;0.25;;;17.40;99.90;;;;;;5026723;28;20232;-71
2022/10/03 07:16:12;;;;;;;1.20;0.50;;;17.30;99.90;;;;;;5030483;28;20204;-69
2022/10/03 07:19:21;;;;;;;1.67;0.43;;;17.30;99.90;;;;;;5026396;28;20218;-71
2022/10/03 07:22:29;;;;;;;1.23;0.60;;;17.20;99.90;;;;;;5029437;28;20198;-72
2022/10/03 07:25:41;;;;;;;2.13;0.40;;;17.10;99.90;;;;;;5028407;28;20194;-71
2022/10/03 07:28:34;;;;;;;1.02;0.43;;;17.10;99.90;;;;;;5027785;28;20562;-69
2022/10/03 07:31:14;;;;;;;3.70;0.75;;;17.10;99.90;;;;;;5025173;28;20214;-69
2022/10/03 07:34:22;;;;;;;0.73;0.47;;;17.10;99.90;;;;;;5027679;28;20210;-71
2022/10/03 07:40:29;;;;;;;0.95;0.30;;;17.00;99.90;;;;;;5026463;28;20283;-73
2022/10/03 07:43:40;;;;;;;0.93;0.40;;;17.00;99.90;;;;;;5034906;28;20196;-72
2022/10/03 07:46:42;;;;;;;1.13;0.40;;;16.90;99.90;;;;;;5033892;28;20216;-70
2022/10/03 07:49:39;;;;;;;1.48;0.40;;;16.90;99.90;;;;;;5024409;28;20305;-72
2022/10/03 07:52:53;;;;;;;1.33;0.43;;;16.80;99.90;;;;;;5030531;28;20198;-71
2022/10/03 07:55:32;;;;;;;1.63;0.55;;;16.80;99.90;;;;;;5035372;28;20198;-70
2022/10/03 07:58:25;;;;;;;0.57;0.57;;;16.70;99.90;;;;;;5024964;28;20197;-73
2022/10/03 08:01:19;;;;;;;1.15;0.80;;;16.70;99.90;;;;;;5031995;28;20252;-74
2022/10/03 08:04:22;;;;;;;1.05;0.63;;;16.60;99.90;;;;;;5032141;28;20194;-73
2022/10/03 08:07:04;;;;;;;1.77;0.40;;;16.50;99.90;;;;;;5013262;28;20210;-73
2022/10/03 08:10:04;;;;;;;0.63;0.50;;;16.50;99.90;;;;;;5032887;28;20544;-73
2022/10/03 08:13:02;;;;;;;0.95;0.50;;;16.50;99.90;;;;;;5025782;28;20595;-73
2022/10/03 08:15:52;;;;;;;1.50;0.60;;;16.40;99.90;;;;;;5031925;28;20662;-73
2022/10/03 08:18:53;;;;;;;0.77;0.50;;;16.30;99.90;;;;;;5034471;28;20190;-73
2022/10/03 08:21:32;;;;;;;1.42;0.52;;;16.30;99.90;;;;;;5028197;28;20197;-72
2022/10/03 08:24:27;;;;;;;0.75;0.60;;;16.30;99.90;;;;;;5029067;28;20565;-74
2022/10/03 08:27:18;;;;;;;0.80;0.50;;;16.20;99.90;;;;;;5031063;28;20205;-73
2022/10/03 08:30:17;;;;;;;0.50;0.50;;;16.30;99.90;;;;;;5036022;28;20681;-71
2022/10/03 08:33:26;;;;;;;1.15;0.47;;;16.30;99.90;;;;;;5029631;28;20197;-71
2022/10/03 08:36:17;;;;;;;0.95;0.70;;;16.20;99.90;;;;;;5029024;28;20198;-74
2022/10/03 08:39:11;;;;;;;1.25;0.50;;;16.20;99.90;;;;;;5024475;28;20244;-69
2022/10/03 08:42:16;;;;;;;0.60;0.60;;;16.10;99.90;;;;;;5029027;28;20281;-70
2022/10/03 08:45:19;;;;;;;1.58;0.40;;;16.10;99.90;;;;;;5028513;28;20285;-72
2022/10/03 08:48:39;;;;;;;0.90;0.43;;;16.10;99.90;;;;;;5025457;28;20567;-73
2022/10/03 08:51:50;;;;;;;1.02;0.63;;;16.10;99.90;;;;;;5025971;28;20220;-70
2022/10/03 08:54:55;;;;;;;1.23;0.63;;;16.00;99.90;;;;;;5026276;28;20205;-72
2022/10/03 08:57:43;;;;;;;1.80;0.50;;;16.00;99.90;;;;;;5011927;28;20286;-71
2022/10/03 09:00:23;;;;;;;7.28;4.10;;;16.00;99.90;;;;;;4995981;28;20687;-68
2022/10/03 09:03:28;;;;;;;3.03;1.50;;;16.00;99.90;;;;;;5027068;28;20227;-69
2022/10/03 09:06:30;;;;;;;1.50;0.68;;;16.00;99.90;;;;;;5025108;28;20190;-71
2022/10/03 09:09:34;;;;;;;3.58;0.57;;;16.00;99.90;;;;;;5026285;28;20194;-69
2022/10/03 09:12:33;;;;;;;1.67;0.60;;;16.00;99.90;;;;;;5027284;28;20288;-73
2022/10/03 09:15:26;;;;;;;3.53;0.65;;;15.90;99.90;;;;;;5030218;28;20285;-73
2022/10/03 09:18:28;;;;;;;1.25;0.52;;;15.90;99.90;;;;;;5024803;28;20213;-73
2022/10/03 09:21:45;;;;;;;1.88;0.68;;;15.90;99.90;;;;;;5022834;28;20233;-71
2022/10/03 09:24:34;;;;;;;1.50;0.70;;;15.90;99.90;;;;;;5027687;28;20552;-73
2022/10/03 09:27:30;;;;;;;1.60;0.50;;;15.90;99.90;;;;;;5025074;28;20204;-70
2022/10/03 09:30:22;;;;;;;1.17;0.60;;;15.90;99.90;;;;;;5023823;28;20229;-72
2022/10/03 09:33:24;;;;;;;2.35;0.73;;;15.90;99.90;;;;;;5024040;28;20202;-70
2022/10/03 09:36:27;;;;;;;1.60;0.68;;;15.80;99.90;;;;;;5015340;28;20280;-70
2022/10/03 09:39:38;;;;;;;1.90;0.60;;;15.80;99.90;;;;;;5024415;28;20245;-72
2022/10/03 09:42:40;;;;;;;2.35;0.73;;;15.80;99.90;;;;;;4968511;28;20229;-69
2022/10/03 09:45:34;;;;;;;1.67;0.52;;;15.70;99.90;;;;;;5023155;28;20202;-73
2022/10/03 09:48:39;;;;;;;1.05;0.60;;;15.70;99.90;;;;;;5020883;28;20234;-73
2022/10/03 09:51:35;;;;;;;3.47;0.57;;;15.70;99.90;;;;;;5025097;28;20201;-73
2022/10/03 09:54:37;;;;;;;3.60;0.60;;;15.70;99.90;;;;;;5017270;28;20539;-70
2022/10/03 09:57:52;;;;;;;2.58;0.60;;;15.70;99.90;;;;;;5024037;28;20198;-73
2022/10/03 10:00:26;;;;;;;2.28;0.70;;;15.70;99.90;;;;;;5013625;28;20241;-73
2022/10/03 10:03:29;;;;;;;2.97;0.80;;;15.70;99.90;;;;;;5022318;28;20194;-74
2022/10/03 10:06:14;;;;;;;3.05;0.60;;;15.60;99.90;;;;;;5010837;28;20202;-74
2022/10/03 10:09:36;;;;;;;1.80;0.50;;;15.60;99.90;;;;;;5025138;28;20209;-71
2022/10/03 10:12:44;;;;;;;2.05;0.50;;;15.60;99.90;;;;;;5022117;28;20213;-74
2022/10/03 10:16:07;;;;;;;2.03;0.70;;;15.50;99.90;;;;;;5022416;28;20204;-72
2022/10/03 10:19:07;;;;;;;3.33;0.80;;;15.50;99.90;;;;;;5026279;28;20663;-72
2022/10/03 10:22:01;;;;;;;3.08;0.50;;;15.50;99.90;;;;;;5024426;28;20654;-73
2022/10/03 10:25:03;;;;;;;1.80;0.60;;;15.50;99.90;;;;;;5027481;28;20214;-73
2022/10/03 10:28:05;;;;;;;2.80;0.60;;;15.50;99.90;;;;;;5024837;28;20669;-72
2022/10/03 10:31:12;;;;;;;4.82;0.88;;;15.50;99.90;;;;;;5025769;28;20228;-72
2022/10/03 10:34:19;;;;;;;2.20;0.60;;;15.40;99.90;;;;;;5028315;28;20202;-73
2022/10/03 10:37:41;;;;;;;2.38;0.70;;;15.40;99.90;;;;;;5026546;28;20201;-74
2022/10/03 10:40:49;;;;;;;2.75;0.70;;;15.40;99.90;;;;;;5027676;28;20210;-73
2022/10/03 10:43:54;;;;;;;3.20;0.60;;;15.30;99.90;;;;;;5023622;28;20218;-72
2022/10/03 10:47:11;;;;;;;3.47;0.73;;;15.30;99.90;;;;;;5033377;28;20212;-74
2022/10/03 10:50:19;;;;;;;1.25;0.60;;;15.30;99.90;;;;;;5031616;28;20204;-72
2022/10/03 10:53:11;;;;;;;2.15;0.60;;;15.30;99.90;;;;;;5033874;28;20210;-74
2022/10/03 10:56:16;;;;;;;4.05;0.70;;;15.20;99.90;;;;;;5030978;28;20217;-75
2022/10/03 10:59:31;;;;;;;2.03;0.63;;;15.30;99.90;;;;;;5032841;28;20194;-74
2022/10/03 11:02:36;;;;;;;2.78;0.65;;;15.20;99.90;;;;;;5030781;28;20198;-73
2022/10/03 11:05:51;;;;;;;4.53;0.70;;;15.20;99.90;;;;;;5029262;28;20198;-74
2022/10/03 11:08:52;;;;;;;1.40;0.77;;;15.20;99.90;;;;;;5027491;28;20550;-71
2022/10/03 11:12:26;;;;;;;1.67;0.55;;;15.20;99.90;;;;;;5000761;28;20629;-73
2022/10/03 11:15:37;;;;;;;0.93;0.57;;;15.20;99.90;;;;;;5020685;28;20293;-74
2022/10/03 11:18:35;;;;;;;1.90;0.70;;;15.10;99.90;;;;;;5029724;28;20198;-74
2022/10/03 11:21:54;;;;;;;1.27;0.60;;;15.10;99.90;;;;;;5030665;28;20229;-74
2022/10/03 11:25:00;;;;;;;1.65;0.60;;;15.00;99.90;;;;;;5031011;28;20225;-73
2022/10/03 11:28:26;;;;;;;2.55;0.80;;;15.00;99.90;;;;;;5031856;28;20544;-75
2022/10/03 11:31:35;;;;;;;3.80;0.60;;;15.00;99.90;;;;;;4916983;29;20716;-69
2022/10/03 11:34:46;;;;;;;1.05;0.50;;;15.00;99.90;;;;;;5029633;28;20204;-73
2022/10/03 11:37:31;;;;;;;1.00;0.50;;;14.90;99.90;;;;;;5021348;28;20237;-73
2022/10/03 11:40:15;;;;;;;0.68;0.50;;;14.90;99.90;;;;;;5031225;28;20217;-70
2022/10/03 11:42:56;;;;;;;3.60;0.70;;;14.80;99.90;;;;;;5027621;28;20198;-71
2022/10/03 11:45:34;;;;;;;1.77;0.60;;;14.80;99.90;;;;;;5024517;28;20201;-73
2022/10/03 11:48:32;;;;;;;3.10;0.60;;;14.80;99.90;;;;;;5027113;28;20194;-71
2022/10/03 11:51:08;;;;;;;1.48;0.52;;;14.80;99.90;;;;;;5027970;28;20206;-72
2022/10/03 11:53:46;;;;;;;2.60;0.63;;;14.80;99.90;;;;;;5043101;28;20197;-69
2022/10/03 11:56:36;;;;;;;1.42;0.40;;;14.90;99.90;;;;;;5036710;28;20255;-72
2022/10/03 11:59:30;;;;;;;1.88;0.60;;;14.80;99.90;;;;;;5037908;28;20212;-73
2022/10/03 12:02:30;;;;;;;1.38;0.50;;;14.80;99.90;;;;;;5030656;28;20212;-70
2022/10/03 12:05:09;;;;;;;1.60;0.68;;;14.80;99.90;;;;;;5026911;28;20217;-72
2022/10/03 12:10:54;;;;;;;2.60;0.70;;;14.80;99.90;;;;;;5031364;28;20212;-73
2022/10/03 12:13:35;;;;;;;1.13;0.60;;;14.80;99.90;;;;;;5028110;28;20210;-73
2022/10/03 12:16:13;;;;;;;1.58;0.60;;;14.80;99.90;;;;;;5026128;28;20191;-74
2022/10/03 12:18:57;;;;;;;2.13;0.70;;;14.80;99.90;;;;;;5028067;28;20213;-73
2022/10/03 12:21:41;;;;;;;2.30;0.60;;;14.80;99.90;;;;;;5027322;28;20712;-70
2022/10/03 12:24:32;;;;;;;1.55;0.70;;;14.70;99.90;;;;;;5024527;28;20278;-74
2022/10/03 12:27:11;;;;;;;1.58;0.70;;;14.70;99.90;;;;;;5028308;28;20201;-74
2022/10/03 12:29:45;;;;;;;1.13;0.50;;;14.60;99.90;;;;;;5032350;28;20213;-73
2022/10/03 12:32:28;;;;;;;1.67;0.70;;;14.60;99.90;;;;;;5037738;28;20190;-74
2022/10/03 12:35:15;;;;;;;1.63;0.60;;;14.60;99.90;;;;;;5038185;28;20217;-74
2022/10/03 12:38:05;;;;;;;0.80;0.60;;;14.60;99.90;;;;;;5032537;28;20229;-73
2022/10/03 12:40:40;;;;;;;3.15;1.00;;;14.60;99.90;;;;;;5034824;28;20221;-73
2022/10/03 12:43:30;;;;;;;3.35;0.68;;;14.60;99.90;;;;;;5033917;28;20206;-72
2022/10/03 12:46:03;;;;;;;1.20;0.40;;;14.60;99.90;;;;;;5038259;28;20202;-74
2022/10/03 12:48:48;;;;;;;1.83;0.60;;;14.50;99.90;;;;;;5036661;28;20684;-73
2022/10/03 12:51:34;;;;;;;3.80;0.70;;;14.50;99.90;;;;;;5030594;28;21572;-73
2022/10/03 12:54:18;;;;;;;2.75;0.40;;;14.50;99.90;;;;;;5031477;28;20189;-74
2022/10/03 12:56:55;;;;;;;1.33;0.60;;;14.40;99.90;;;;;;5025964;28;20750;-74
2022/10/03 12:59:37;;;;;;;2.10;0.50;;;14.50;99.90;;;;;;5025304;28;20206;-73
2022/10/03 13:02:24;;;;;;;2.72;0.60;;;14.50;99.90;;;;;;5025109;28;21768;-74
2022/10/03 13:05:18;;;;;;;1.42;0.70;;;14.40;99.90;;;;;;5025827;28;20209;-74
2022/10/03 13:07:56;;;;;;;1.52;0.60;;;14.40;99.90;;;;;;5025606;28;20207;-74
2022/10/03 13:10:40;;;;;;;1.05;0.50;;;14.40;99.90;;;;;;5025501;28;20206;-74
2022/10/03 13:13:33;;;;;;;1.40;0.63;;;14.40;99.90;;;;;;5024696;28;20205;-71
2022/10/03 13:16:21;;;;;;;3.38;0.63;;;14.40;99.90;;;;;;5020160;28;20200;-74
2022/10/03 13:18:58;;;;;;;1.45;0.60;;;14.30;99.90;;;;;;5025871;28;20830;-74
2022/10/03 13:21:46;;;;;;;1.17;0.57;;;14.30;99.90;;;;;;5025037;28;20332;-73
2022/10/03 13:24:30;;;;;;;1.15;0.52;;;14.20;99.90;;;;;;5029120;28;20202;-74
2022/10/03 13:27:17;;;;;;;2.20;0.63;;;14.20;99.90;;;;;;5016997;28;20368;-73
2022/10/03 13:29:52;;;;;;;2.47;0.63;;;14.20;99.90;;;;;;5023007;28;20222;-74
2022/10/03 13:32:31;;;;;;;2.28;0.60;;;14.10;99.90;;;;;;5026213;28;20213;-73
2022/10/03 13:38:25;;;;;;;2.45;0.57;;;14.00;99.90;;;;;;5026096;28;20241;-74
2022/10/03 13:41:03;;;;;;;1.23;0.40;;;14.00;99.90;;;;;;5026023;28;20256;-73
2022/10/03 13:43:39;;;;;;;0.90;0.60;;;14.00;99.90;;;;;;5025643;28;20194;-73
2022/10/03 13:46:16;;;;;;;0.88;0.55;;;14.00;99.90;;;;;;5018347;28;20199;-73
2022/10/03 13:48:54;;;;;;;1.90;0.63;;;14.00;99.90;;;;;;5028956;28;20198;-73
2022/10/03 13:51:34;;;;;;;1.48;0.60;;;13.90;99.90;;;;;;5028275;28;20220;-74
2022/10/03 13:54:09;;;;;;;1.85;0.70;;;13.90;99.90;;;;;;5025694;28;20281;-73
2022/10/03 13:56:57;;;;;;;0.80;0.55;;;13.90;99.90;;;;;;5028810;28;20198;-73
2022/10/03 13:59:49;;;;;;;1.73;0.80;;;13.90;99.90;;;;;;5031041;28;20194;-73
2022/10/03 14:02:48;;;;;;;4.45;0.80;;;13.80;99.90;;;;;;5017572;28;20229;-73
2022/10/03 14:05:53;;;;;;;5.65;0.70;;;13.90;99.90;;;;;;5027833;28;20202;-73
2022/10/03 14:08:48;;;;;;;2.55;0.80;;;13.90;99.90;;;;;;5028076;28;20198;-73
2022/10/03 14:11:31;;;;;;;1.90;0.88;;;13.80;99.90;;;;;;5026310;28;20657;-73
2022/10/03 14:14:35;;;;;;;3.63;1.10;;;13.80;99.90;;;;;;5030746;28;20823;-73
2022/10/03 14:17:14;;;;;;;1.88;0.80;;;13.80;99.90;;;;;;5030626;28;20198;-74
2022/10/03 14:20:00;;;;;;;2.80;1.10;;;13.80;99.90;;;;;;5033143;28;20198;-73
2022/10/03 14:22:43;;;;;;;2.85;1.00;;;13.80;99.90;;;;;;5032174;28;20224;-69
2022/10/03 14:25:27;;;;;;;3.03;0.90;;;13.80;99.90;;;;;;5026340;28;20201;-73
2022/10/03 14:28:03;;;;;;;1.27;0.75;;;13.70;99.90;;;;;;5027973;28;20194;-70
2022/10/03 14:30:46;;;;;;;4.47;1.05;;;13.70;99.90;;;;;;5033615;28;20276;-72
2022/10/03 14:33:25;;;;;;;2.20;0.98;;;13.70;99.90;;;;;;5035715;28;20208;-72
2022/10/03 14:36:05;;;;;;;2.03;1.02;;;13.60;99.90;;;;;;5035590;28;20202;-72
2022/10/03 14:39:09;;;;;;;2.97;0.98;;;13.60;99.90;;;;;;5034713;28;20230;-69
2022/10/03 14:41:47;;;;;;;1.83;1.05;;;13.60;99.90;;;;;;5017961;28;20229;-70
2022/10/03 14:44:22;;;;;;;1.63;1.00;;;13.50;99.90;;;;;;5031918;28;20194;-69
2022/10/03 14:46:58;;;;;;;2.50;1.17;;;13.50;99.90;;;;;;5029683;28;20653;-73
2022/10/03 14:49:34;;;;;;;1.20;1.02;;;13.50;99.90;;;;;;5027433;28;20650;-71
2022/10/03 14:52:10;;;;;;;2.65;1.10;;;13.50;99.90;;;;;;5030619;28;20300;-71
2022/10/03 14:54:42;;;;;;;3.22;1.00;;;13.40;99.90;;;;;;5028539;28;20244;-72
2022/10/03 14:57:30;;;;;;;2.88;1.15;;;13.40;99.90;;;;;;5031497;28;20204;-73
2022/10/03 15:00:02;;;;;;;1.98;1.10;;;13.30;99.90;;;;;;5021647;28;20199;-70
2022/10/03 15:02:36;;;;;;;1.23;0.90;;;13.30;99.90;;;;;;5030775;28;20225;-70
2022/10/03 15:05:15;;;;;;;1.52;1.08;;;13.30;99.90;;;;;;5025554;28;20244;-69
2022/10/03 15:07:47;;;;;;;1.95;0.80;;;13.30;99.90;;;;;;5030392;28;20263;-70
2022/10/03 15:10:22;;;;;;;2.28;1.00;;;13.30;99.90;;;;;;5027753;28;21836;-72